createdAt,value
2023-02-25T00:01:51.219Z,2.48
2023-02-25T00:04:28.796Z,2.48
2023-02-25T00:06:57.102Z,2.47
2023-02-25T00:09:25.280Z,2.47
2023-02-25T00:11:54.971Z,2.44
2023-02-25T00:14:23.114Z,2.42
2023-02-25T00:16:51.383Z,2.37
2023-02-25T00:19:19.538Z,2.33
2023-02-25T00:21:47.687Z,2.33
2023-02-25T00:24:17.188Z,2.31
2023-02-25T00:26:45.593Z,2.30
2023-02-25T00:29:16.928Z,2.33
2023-02-25T00:31:46.872Z,2.35
2023-02-25T00:34:16.082Z,2.38
2023-02-25T00:36:44.345Z,2.38
2023-02-25T00:39:12.717Z,2.35
2023-02-25T00:41:41.137Z,2.35
2023-02-25T00:44:09.323Z,2.31
2023-02-25T00:46:40.592Z,2.28
2023-02-25T00:49:11.189Z,2.27
2023-02-25T00:51:40.323Z,2.29
2023-02-25T00:54:08.340Z,2.28
2023-02-25T00:56:37.292Z,2.25
2023-02-25T00:59:05.669Z,2.25
2023-02-25T01:01:34.621Z,2.25
2023-02-25T01:04:04.349Z,2.22
2023-02-25T01:06:33.469Z,2.19
2023-02-25T01:09:01.824Z,2.17
2023-02-25T01:11:30.880Z,2.14
2023-02-25T01:14:00.259Z,2.10
2023-02-25T01:16:29.719Z,2.08
2023-02-25T01:18:59.729Z,2.04
2023-02-25T01:21:30.238Z,2.02
2023-02-25T01:23:59.616Z,1.97
2023-02-25T01:26:28.340Z,1.94
2023-02-25T01:28:57.089Z,1.87
2023-02-25T01:31:29.646Z,1.83
2023-02-25T01:33:58.986Z,1.80
2023-02-25T01:36:27.346Z,1.79
2023-02-25T01:38:56.989Z,1.75
2023-02-25T01:41:25.146Z,1.68
2023-02-25T01:44:04.321Z,1.64
2023-02-25T01:46:32.504Z,1.59
2023-02-25T01:49:01.715Z,1.58
2023-02-25T01:51:30.270Z,1.58
2023-02-25T01:54:02.781Z,1.58
2023-02-25T01:56:31.951Z,1.58
2023-02-25T01:59:00.761Z,1.57
2023-02-25T02:01:31.007Z,1.48
2023-02-25T02:03:59.241Z,1.40
2023-02-25T02:06:30.333Z,1.31
2023-02-25T02:09:00.526Z,1.23
2023-02-25T02:11:28.812Z,1.15
2023-02-25T02:13:59.232Z,1.06
2023-02-25T02:16:38.466Z,0.94
2023-02-25T02:19:13.687Z,0.83
2023-02-25T02:21:46.640Z,0.77
2023-02-25T02:24:32.606Z,0.69
2023-02-25T02:27:03.618Z,0.64
2023-02-25T02:30:05.716Z,0.56
2023-02-25T02:32:37.877Z,0.50
2023-02-25T02:35:14.938Z,0.43
2023-02-25T02:37:45.763Z,0.38
2023-02-25T02:40:20.051Z,0.31
2023-02-25T02:42:54.894Z,0.25
2023-02-25T02:45:25.060Z,0.17
2023-02-25T02:47:56.012Z,0.08
2023-02-25T02:50:27.006Z,0.02
2023-02-25T02:52:57.840Z,-0.09
2023-02-25T02:55:27.948Z,-0.15
2023-02-25T02:57:59.522Z,-0.22
2023-02-25T03:00:30.469Z,-0.28
2023-02-25T03:03:03.795Z,-0.31
2023-02-25T03:05:34.572Z,-0.31
2023-02-25T03:08:07.022Z,-0.27
2023-02-25T03:10:36.430Z,-0.16
2023-02-25T03:13:04.878Z,-0.10
2023-02-25T03:15:33.563Z,-0.02
2023-02-25T03:18:05.579Z,0.05
2023-02-25T03:20:37.577Z,0.17
2023-02-25T03:23:09.665Z,0.30
2023-02-25T03:25:47.569Z,0.42
2023-02-25T03:28:22.942Z,0.58
2023-02-25T03:30:54.301Z,0.73
2023-02-25T03:33:28.288Z,0.83
2023-02-25T03:35:57.595Z,0.93
2023-02-25T03:38:27.978Z,1.03
2023-02-25T03:40:59.350Z,1.11
2023-02-25T03:43:29.427Z,1.17
2023-02-25T03:45:58.748Z,1.20
2023-02-25T03:48:30.690Z,1.24
2023-02-25T03:51:01.561Z,1.26
2023-02-25T03:53:33.934Z,1.29
2023-02-25T03:56:11.922Z,1.29
2023-02-25T03:58:43.610Z,1.31
2023-02-25T04:01:17.103Z,1.29
2023-02-25T04:03:47.039Z,1.32
2023-02-25T04:06:16.433Z,1.32
2023-02-25T04:08:45.025Z,1.27
2023-02-25T04:11:13.360Z,1.30
2023-02-25T04:13:43.473Z,1.28
2023-02-25T04:16:11.561Z,1.33
2023-02-25T04:18:40.216Z,1.30
2023-02-25T04:21:10.938Z,1.31
2023-02-25T04:23:38.994Z,1.32
2023-02-25T04:26:07.250Z,1.32
2023-02-25T04:28:35.329Z,1.35
2023-02-25T04:31:03.750Z,1.36
2023-02-25T04:33:32.550Z,1.34
2023-02-25T04:36:00.672Z,1.36
2023-02-25T04:38:30.198Z,1.35
2023-02-25T04:40:58.341Z,1.37
2023-02-25T04:43:26.479Z,1.37
2023-02-25T04:45:55.483Z,1.34
2023-02-25T04:48:24.516Z,1.38
2023-02-25T04:50:52.797Z,1.41
2023-02-25T04:53:20.985Z,1.43
2023-02-25T04:55:50.809Z,1.48
2023-02-25T04:58:18.753Z,1.51
2023-02-25T05:00:49.073Z,1.54
2023-02-25T05:03:17.218Z,1.58
2023-02-25T05:05:45.616Z,1.58
2023-02-25T05:08:13.610Z,1.59
2023-02-25T05:10:41.677Z,1.61
2023-02-25T05:13:11.317Z,1.64
2023-02-25T05:15:39.694Z,1.66
2023-02-25T05:18:07.798Z,1.68
2023-02-25T05:20:35.884Z,1.72
2023-02-25T05:23:03.972Z,1.75
2023-02-25T05:25:33.893Z,1.78
2023-02-25T05:28:02.351Z,1.82
2023-02-25T05:30:31.773Z,1.84
2023-02-25T05:32:59.872Z,1.88
2023-02-25T05:35:28.116Z,1.89
2023-02-25T05:37:56.341Z,1.94
2023-02-25T05:40:24.610Z,1.96
2023-02-25T05:42:52.774Z,1.98
2023-02-25T05:45:20.772Z,1.96
2023-02-25T05:47:50.233Z,1.98
2023-02-25T05:50:18.286Z,1.97
2023-02-25T05:52:46.955Z,1.98
2023-02-25T05:55:15.394Z,2.00
2023-02-25T05:57:43.808Z,2.03
2023-02-25T06:00:15.177Z,2.03
2023-02-25T06:02:44.431Z,2.08
2023-02-25T06:05:14.784Z,2.11
2023-02-25T06:07:42.913Z,2.12
2023-02-25T06:10:12.034Z,2.15
2023-02-25T06:12:40.233Z,2.16
2023-02-25T06:15:09.012Z,2.17
2023-02-25T06:17:37.057Z,2.15
2023-02-25T06:20:06.309Z,2.15
2023-02-25T06:22:35.816Z,2.17
2023-02-25T06:25:04.202Z,2.18
2023-02-25T06:27:32.636Z,2.20
2023-02-25T06:30:02.727Z,2.19
2023-02-25T06:32:30.932Z,2.22
2023-02-25T06:34:59.156Z,2.25
2023-02-25T06:37:27.218Z,2.30
2023-02-25T06:39:57.049Z,2.24
2023-02-25T06:42:25.258Z,2.27
2023-02-25T06:44:53.273Z,2.29
2023-02-25T06:47:23.142Z,2.28
2023-02-25T06:49:51.455Z,2.27
2023-02-25T06:52:19.534Z,2.29
2023-02-25T06:54:47.878Z,2.30
2023-02-25T06:57:17.379Z,2.31
2023-02-25T06:59:45.407Z,2.33
2023-02-25T07:02:13.545Z,2.33
2023-02-25T07:04:43.878Z,2.32
2023-02-25T07:07:12.228Z,2.38
2023-02-25T07:09:40.491Z,2.33
2023-02-25T07:12:08.624Z,2.36
2023-02-25T07:14:38.264Z,2.36
2023-02-25T07:17:06.699Z,2.38
2023-02-25T07:19:34.862Z,2.38
2023-02-25T07:22:03.400Z,2.39
2023-02-25T07:24:31.601Z,2.31
2023-02-25T07:26:59.727Z,2.31
2023-02-25T07:29:27.754Z,2.34
2023-02-25T07:31:57.503Z,2.30
2023-02-25T07:34:25.799Z,2.30
2023-02-25T07:36:54.101Z,2.31
2023-02-25T07:39:22.866Z,2.31
2023-02-25T07:41:51.123Z,2.33
2023-02-25T07:44:21.142Z,2.29
2023-02-25T07:46:49.286Z,2.28
2023-02-25T07:49:18.688Z,2.29
2023-02-25T07:51:46.812Z,2.25
2023-02-25T07:54:16.001Z,2.22
2023-02-25T07:56:44.282Z,2.31
2023-02-25T07:59:12.723Z,2.36
2023-02-25T08:01:40.850Z,2.40
2023-02-25T08:04:10.535Z,2.46
2023-02-25T08:06:41.090Z,2.51
2023-02-25T08:09:11.220Z,2.55
2023-02-25T08:11:40.041Z,2.59
2023-02-25T08:14:08.157Z,2.65
2023-02-25T08:16:36.170Z,2.65
2023-02-25T08:19:04.547Z,2.66
2023-02-25T08:21:32.732Z,2.69
2023-02-25T08:24:02.199Z,2.71
2023-02-25T08:26:30.230Z,2.81
2023-02-25T08:28:58.757Z,2.86
2023-02-25T08:31:27.275Z,2.89
2023-02-25T08:33:57.204Z,2.94
2023-02-25T08:36:26.847Z,2.92
2023-02-25T08:38:57.240Z,2.93
2023-02-25T08:41:27.703Z,2.99
2023-02-25T08:43:56.744Z,3.07
2023-02-25T08:46:27.812Z,3.19
2023-02-25T08:48:56.367Z,3.32
2023-02-25T08:51:26.682Z,3.47
2023-02-25T08:53:54.940Z,3.65
2023-02-25T08:56:23.157Z,3.80
2023-02-25T08:58:52.674Z,4.02
2023-02-25T09:01:21.239Z,4.18
2023-02-25T09:03:52.474Z,4.42
2023-02-25T09:06:22.125Z,4.48
2023-02-25T09:08:50.869Z,4.53
2023-02-25T09:11:19.053Z,4.69
2023-02-25T09:13:47.314Z,4.70
2023-02-25T09:16:17.645Z,4.82
2023-02-25T09:18:46.226Z,4.96
2023-02-25T09:21:16.370Z,5.12
2023-02-25T09:23:44.778Z,5.36
2023-02-25T09:26:12.953Z,5.45
2023-02-25T09:28:41.633Z,5.58
2023-02-25T09:31:10.044Z,5.74
2023-02-25T09:33:39.732Z,5.89
2023-02-25T09:36:08.778Z,6.02
2023-02-25T09:38:37.153Z,6.05
2023-02-25T09:41:13.397Z,6.13
2023-02-25T09:43:43.274Z,6.08
2023-02-25T09:46:13.689Z,6.09
2023-02-25T09:48:47.428Z,5.98
2023-02-25T09:51:20.556Z,6.01
2023-02-25T09:53:50.983Z,6.50
2023-02-25T09:56:19.457Z,7.20
2023-02-25T09:58:52.355Z,7.87
2023-02-25T10:01:27.526Z,8.52
2023-02-25T10:04:00.667Z,9.04
2023-02-25T10:06:31.497Z,9.56
2023-02-25T10:09:04.088Z,10.22
2023-02-25T10:11:40.241Z,10.95
2023-02-25T10:14:14.209Z,11.43
2023-02-25T10:16:47.929Z,11.59
2023-02-25T10:19:24.200Z,11.49
2023-02-25T10:22:10.013Z,11.51
2023-02-25T10:24:42.269Z,11.47
2023-02-25T10:27:16.526Z,11.72
2023-02-25T10:29:49.504Z,11.66
2023-02-25T10:32:19.918Z,11.50
2023-02-25T10:34:49.560Z,11.15
2023-02-25T10:37:20.437Z,10.92
2023-02-25T10:39:49.101Z,10.60
2023-02-25T10:42:18.148Z,10.35
2023-02-25T10:44:46.833Z,10.26
2023-02-25T10:47:18.030Z,10.05
2023-02-25T10:50:01.099Z,10.05
2023-02-25T10:52:30.795Z,9.72
2023-02-25T10:54:59.742Z,9.12
2023-02-25T10:57:28.856Z,8.88
2023-02-25T11:00:01.442Z,8.95
2023-02-25T11:02:31.594Z,9.18
2023-02-25T11:04:59.924Z,9.22
2023-02-25T11:07:36.168Z,9.24
2023-02-25T11:10:14.021Z,9.41
2023-02-25T11:12:42.974Z,9.32
2023-02-25T11:15:19.628Z,8.99
2023-02-25T11:17:48.024Z,8.97
2023-02-25T11:20:25.235Z,9.06
2023-02-25T11:22:56.161Z,8.87
2023-02-25T11:25:31.588Z,8.79
2023-02-25T11:27:59.983Z,8.59
2023-02-25T11:30:31.909Z,8.45
2023-02-25T11:33:00.979Z,8.36
2023-02-25T11:35:30.956Z,8.26
2023-02-25T11:38:13.698Z,8.03
2023-02-25T11:40:43.096Z,7.90
2023-02-25T11:43:19.865Z,8.42
2023-02-25T11:45:53.120Z,8.42
2023-02-25T11:48:22.765Z,8.39
2023-02-25T11:50:55.300Z,8.25
2023-02-25T11:53:32.202Z,8.03
2023-02-25T11:56:03.583Z,8.40
2023-02-25T11:58:37.926Z,8.94
2023-02-25T12:01:12.704Z,9.01
2023-02-25T12:03:55.737Z,9.30
2023-02-25T12:06:32.603Z,9.29
2023-02-25T12:09:14.395Z,9.06
2023-02-25T12:11:57.481Z,8.93
2023-02-25T12:14:53.790Z,8.92
2023-02-25T12:17:28.889Z,8.62
2023-02-25T12:20:18.025Z,8.23
2023-02-25T12:23:14.000Z,8.01
2023-02-25T12:25:50.144Z,8.37
2023-02-25T12:28:27.411Z,8.47
2023-02-25T12:31:12.518Z,8.15
2023-02-25T12:33:57.340Z,8.11
2023-02-25T12:36:35.801Z,7.95
2023-02-25T12:39:20.612Z,7.87
2023-02-25T12:41:54.759Z,7.78
2023-02-25T12:44:37.869Z,7.79
2023-02-25T12:47:18.114Z,7.61
2023-02-25T12:50:10.148Z,7.50
2023-02-25T12:52:44.502Z,7.38
2023-02-25T12:55:30.566Z,7.53
2023-02-25T12:58:07.411Z,7.95
2023-02-25T13:00:48.411Z,8.18
2023-02-25T13:03:35.147Z,8.16
2023-02-25T13:06:16.228Z,8.07
2023-02-25T13:08:55.172Z,7.92
2023-02-25T13:11:28.782Z,7.86
2023-02-25T13:14:14.926Z,7.71
2023-02-25T13:16:58.901Z,7.64
2023-02-25T13:19:35.821Z,7.43
2023-02-25T13:22:09.789Z,7.37
2023-02-25T13:24:48.024Z,7.34
2023-02-25T13:27:24.095Z,7.59
2023-02-25T13:30:05.147Z,7.76
2023-02-25T13:32:37.109Z,7.88
2023-02-25T13:35:17.387Z,8.04
2023-02-25T13:37:52.517Z,8.04
2023-02-25T13:40:27.269Z,7.94
2023-02-25T13:43:16.367Z,7.78
2023-02-25T13:46:02.417Z,7.66
2023-02-25T13:48:49.354Z,7.62
2023-02-25T13:51:25.631Z,7.81
2023-02-25T13:54:07.694Z,7.63
2023-02-25T13:56:46.384Z,7.46
2023-02-25T13:59:21.687Z,7.23
2023-02-25T14:01:59.136Z,7.27
2023-02-25T14:04:36.477Z,7.41
2023-02-25T14:07:22.184Z,7.59
2023-02-25T14:09:56.864Z,7.85
2023-02-25T14:12:34.566Z,7.75
2023-02-25T14:15:19.790Z,7.47
2023-02-25T14:17:54.518Z,7.15
2023-02-25T14:20:29.511Z,6.90
2023-02-25T14:23:02.218Z,6.98
2023-02-25T14:25:40.102Z,7.01
2023-02-25T14:28:13.452Z,7.22
2023-02-25T14:30:48.518Z,7.34
2023-02-25T14:33:39.614Z,7.24
2023-02-25T14:36:13.621Z,6.89
2023-02-25T14:38:48.586Z,6.66
2023-02-25T14:41:28.768Z,6.51
2023-02-25T14:43:58.287Z,6.60
2023-02-25T14:46:32.192Z,6.74
2023-02-25T14:49:02.334Z,6.85
2023-02-25T14:51:42.484Z,6.95
2023-02-25T14:54:31.758Z,7.11
2023-02-25T14:57:12.220Z,7.24
2023-02-25T15:00:10.873Z,7.31
2023-02-25T15:02:53.700Z,7.24
2023-02-25T15:05:45.955Z,7.07
2023-02-25T15:08:25.972Z,6.89
2023-02-25T15:11:13.914Z,6.70
2023-02-25T15:13:56.645Z,6.50
2023-02-25T15:16:35.618Z,6.39
2023-02-25T15:19:24.923Z,6.31
2023-02-25T15:22:13.042Z,6.24
2023-02-25T15:24:42.618Z,6.05
2023-02-25T15:27:37.674Z,5.93
2023-02-25T15:30:09.381Z,5.77
2023-02-25T15:32:48.688Z,5.78
2023-02-25T15:35:21.467Z,5.81
2023-02-25T15:38:14.778Z,5.87
2023-02-25T15:40:49.027Z,6.00
2023-02-25T15:43:41.165Z,6.15
2023-02-25T15:46:28.473Z,6.32
2023-02-25T15:49:10.479Z,6.45
2023-02-25T15:51:42.513Z,6.33
2023-02-25T15:54:10.898Z,6.15
2023-02-25T15:56:50.232Z,6.05
2023-02-25T15:59:33.172Z,5.91
2023-02-25T16:02:01.483Z,5.78
2023-02-25T16:04:50.339Z,5.94
2023-02-25T16:07:21.020Z,6.07
2023-02-25T16:09:55.493Z,6.07
2023-02-25T16:12:24.675Z,5.92
2023-02-25T16:14:53.882Z,5.79
2023-02-25T16:17:24.485Z,5.63
2023-02-25T16:19:55.758Z,5.49
2023-02-25T16:22:25.376Z,5.42
2023-02-25T16:24:55.348Z,5.31
2023-02-25T16:27:30.368Z,5.31
2023-02-25T16:30:03.519Z,5.32
2023-02-25T16:32:36.867Z,5.39
2023-02-25T16:35:10.942Z,5.35
2023-02-25T16:37:43.973Z,5.42
2023-02-25T16:40:16.057Z,5.33
2023-02-25T16:42:45.098Z,5.30
2023-02-25T16:45:23.312Z,5.24
2023-02-25T16:47:54.888Z,5.16
2023-02-25T16:50:25.381Z,5.23
2023-02-25T16:52:54.215Z,5.12
2023-02-25T16:55:23.557Z,5.12
2023-02-25T16:58:05.403Z,5.09
2023-02-25T17:00:34.350Z,5.08
2023-02-25T17:03:06.907Z,5.06
2023-02-25T17:05:37.532Z,5.08
2023-02-25T17:08:07.088Z,5.07
2023-02-25T17:10:41.550Z,4.99
2023-02-25T17:13:14.662Z,4.98
2023-02-25T17:15:43.062Z,4.96
2023-02-25T17:18:13.735Z,4.86
2023-02-25T17:20:43.564Z,4.81
2023-02-25T17:23:13.382Z,4.81
2023-02-25T17:25:42.816Z,4.74
2023-02-25T17:28:19.458Z,4.76
2023-02-25T17:30:47.708Z,4.74
2023-02-25T17:33:22.766Z,4.75
2023-02-25T17:35:54.712Z,4.68
2023-02-25T17:38:23.887Z,4.70
2023-02-25T17:40:52.987Z,4.61
2023-02-25T17:43:23.347Z,4.63
2023-02-25T17:45:57.131Z,4.62
2023-02-25T17:48:26.722Z,4.60
2023-02-25T17:50:59.534Z,4.49
2023-02-25T17:53:33.931Z,4.45
2023-02-25T17:56:09.203Z,4.35
2023-02-25T17:58:37.582Z,4.31
2023-02-25T18:01:06.038Z,4.33
2023-02-25T18:03:43.996Z,4.23
2023-02-25T18:06:26.877Z,4.26
2023-02-25T18:08:57.400Z,4.20
2023-02-25T18:11:27.041Z,4.22
2023-02-25T18:13:55.460Z,4.20
2023-02-25T18:16:40.746Z,4.14
2023-02-25T18:19:23.815Z,4.17
2023-02-25T18:21:53.028Z,4.20
2023-02-25T18:24:25.702Z,4.18
2023-02-25T18:27:08.168Z,4.15
2023-02-25T18:29:37.071Z,4.18
2023-02-25T18:32:05.468Z,4.14
2023-02-25T18:34:33.603Z,4.18
2023-02-25T18:37:01.793Z,4.18
2023-02-25T18:39:31.483Z,4.20
2023-02-25T18:41:59.529Z,4.20
2023-02-25T18:44:27.631Z,4.19
2023-02-25T18:46:55.917Z,4.21
2023-02-25T18:49:23.960Z,4.18
2023-02-25T18:51:52.581Z,4.13
2023-02-25T18:54:21.010Z,4.14
2023-02-25T18:56:50.376Z,4.00
2023-02-25T18:59:18.409Z,3.87
2023-02-25T19:01:46.663Z,3.67
2023-02-25T19:04:17.448Z,3.59
2023-02-25T19:06:46.799Z,3.49
2023-02-25T19:09:16.045Z,3.37
2023-02-25T19:11:44.167Z,3.27
2023-02-25T19:14:17.550Z,3.08
2023-02-25T19:16:46.046Z,3.11
2023-02-25T19:19:14.214Z,3.17
2023-02-25T19:21:42.286Z,3.19
2023-02-25T19:24:12.754Z,3.22
2023-02-25T19:26:41.787Z,3.27
2023-02-25T19:29:09.836Z,3.37
2023-02-25T19:31:39.771Z,3.44
2023-02-25T19:34:08.059Z,3.49
2023-02-25T19:36:36.109Z,3.53
2023-02-25T19:39:05.516Z,3.58
2023-02-25T19:41:34.662Z,3.61
2023-02-25T19:44:02.747Z,3.59
2023-02-25T19:46:30.961Z,3.63
2023-02-25T19:49:00.681Z,3.62
2023-02-25T19:51:28.772Z,3.61
2023-02-25T19:53:56.955Z,3.67
2023-02-25T19:56:25.591Z,3.67
2023-02-25T19:58:57.406Z,3.66
2023-02-25T20:01:25.550Z,3.71
2023-02-25T20:03:53.652Z,3.73
2023-02-25T20:06:26.200Z,3.71
2023-02-25T20:08:55.979Z,3.71
2023-02-25T20:11:24.601Z,3.74
2023-02-25T20:13:52.698Z,3.79
2023-02-25T20:16:24.319Z,3.84
2023-02-25T20:18:53.343Z,3.84
2023-02-25T20:21:21.393Z,3.87
2023-02-25T20:23:50.981Z,3.89
2023-02-25T20:26:20.158Z,3.87
2023-02-25T20:28:48.610Z,3.89
2023-02-25T20:31:18.054Z,3.90
2023-02-25T20:33:46.314Z,3.90
2023-02-25T20:36:20.118Z,3.91
2023-02-25T20:38:57.696Z,3.93
2023-02-25T20:41:26.053Z,3.95
2023-02-25T20:43:54.152Z,3.95
2023-02-25T20:46:25.086Z,3.95
2023-02-25T20:48:53.885Z,3.93
2023-02-25T20:51:22.780Z,3.86
2023-02-25T20:53:51.161Z,3.79
2023-02-25T20:56:22.788Z,3.75
2023-02-25T20:58:51.460Z,3.73
2023-02-25T21:01:19.740Z,3.65
2023-02-25T21:03:48.497Z,3.68
2023-02-25T21:06:17.169Z,3.66
2023-02-25T21:08:45.255Z,3.67
2023-02-25T21:11:13.273Z,3.72
2023-02-25T21:13:42.730Z,3.70
2023-02-25T21:16:11.482Z,3.71
2023-02-25T21:18:40.741Z,3.78
2023-02-25T21:21:09.739Z,3.80
2023-02-25T21:23:39.862Z,3.80
2023-02-25T21:26:09.007Z,3.83
2023-02-25T21:28:37.809Z,3.79
2023-02-25T21:31:08.911Z,3.77
2023-02-25T21:33:37.942Z,3.72
2023-02-25T21:36:07.024Z,3.73
2023-02-25T21:38:35.883Z,3.74
2023-02-25T21:41:06.387Z,3.79
2023-02-25T21:43:34.457Z,3.77
2023-02-25T21:46:03.285Z,3.76
2023-02-25T21:48:34.154Z,3.78
2023-02-25T21:51:03.390Z,3.78
2023-02-25T21:53:31.688Z,3.81
2023-02-25T21:56:08.627Z,3.77
2023-02-25T21:58:36.783Z,3.78
2023-02-25T22:01:11.922Z,3.76
2023-02-25T22:03:41.453Z,3.79
2023-02-25T22:06:09.892Z,3.80
2023-02-25T22:08:40.336Z,3.82
2023-02-25T22:11:12.062Z,3.82
2023-02-25T22:13:40.178Z,3.83
2023-02-25T22:16:08.621Z,3.81
2023-02-25T22:18:37.281Z,3.85
2023-02-25T22:21:08.533Z,3.83
2023-02-25T22:23:37.079Z,3.84
2023-02-25T22:26:05.700Z,3.86
2023-02-25T22:28:33.987Z,3.87
2023-02-25T22:31:02.251Z,3.87
2023-02-25T22:33:31.913Z,3.89
2023-02-25T22:36:02.024Z,3.88
2023-02-25T22:38:32.898Z,3.92
2023-02-25T22:41:02.137Z,3.92
2023-02-25T22:43:30.606Z,3.98
2023-02-25T22:46:05.448Z,3.95
2023-02-25T22:48:33.698Z,3.97
2023-02-25T22:51:01.866Z,3.95
2023-02-25T22:53:31.506Z,3.93
2023-02-25T22:56:01.798Z,3.89
2023-02-25T22:58:30.719Z,3.92
2023-02-25T23:00:59.536Z,3.95
2023-02-25T23:03:27.987Z,3.96
2023-02-25T23:05:56.225Z,3.96
2023-02-25T23:08:24.439Z,3.97
2023-02-25T23:10:54.368Z,3.97
2023-02-25T23:13:22.489Z,3.96
2023-02-25T23:15:50.929Z,3.95
2023-02-25T23:18:19.162Z,3.91
2023-02-25T23:20:48.859Z,3.91
2023-02-25T23:23:17.764Z,3.93
2023-02-25T23:25:51.394Z,3.96
2023-02-25T23:28:21.127Z,4.00
2023-02-25T23:30:49.408Z,4.01
2023-02-25T23:33:18.110Z,4.03
2023-02-25T23:35:46.168Z,4.03
2023-02-25T23:38:14.394Z,4.03
2023-02-25T23:40:42.746Z,4.03
2023-02-25T23:43:10.899Z,4.02
2023-02-25T23:45:40.988Z,4.05
2023-02-25T23:48:10.311Z,4.06
2023-02-25T23:50:38.326Z,4.02
2023-02-25T23:53:06.373Z,4.03
2023-02-25T23:55:36.309Z,4.04
2023-02-25T23:58:04.412Z,4.03
